Miramar Marine Corps Air Station San Diego US
ICAO: KNKX
IATA: NKX
Category: Medium
Scheduled Services: No

Elevation: 477 ft
TransAlt. 18000 ft.

Airport Communications:
SOCAL APP:132.2
ATIS:35.2
CLNC DEL:125.975
SOCAL DEP:119.6
GND:128.625
PMSV METRO:34.24
PTD:33.562
TWR:135.2

KNKX Zoom In..

If you have problems with the map follow the link
https://www.worldairports.se/pages/airport.php?
ICAO=KNKX

Runways:

(A) RW 06L length 12000 ft width 200 ft
---- / hdg 60

(B) RW 06R length 8001 ft width 200 ft
---- / hdg 60

(C) RW 24L length 8001 ft width 200 ft
---- / hdg 240

(D) RW 24R length 12000 ft width 200 ft
ILS 111.15 / hdg 240

Location; KNKX
Day. 17 / Time. 20.55 Zulu
* Altimeter: 30.20
* Temperature: 16° c. 60.8°f.
* Wind from: 290° Speed 03 kn.
Dewpoint: 09° c.
Visibility: 10 Statute Miles.
Clouds: Few 2000 ft.
Clouds: Broken 4700 ft.

KNKX 172055Z 29003KT 10SM FEW020 BKN047 16/09 A3020 RMK AO2 SLP222 T01560089 58015


Wind From 290°
Speed 03 kn.

 
 
jpsmedia worldairports.se 2020   terms of use